Latest Weather Observations for Port Pirie Airport AWS

IDS60801

Issued at 4:31 pm CST Tuesday 20 April 2021 (issued every 10 minutes, with the page automatically refreshed every 10 minutes)

About weather observations | Map of weather stations | Latest weather observations for SA | Other Formats
Station Details ID: 021139 Name: PORT PIRIE AERODROME AWS Lat: -33.24 Lon: 138.00 Height: 12.0 m
Data from the previous 72 hours. | See also: Recent months for locations in South Australia
Date/Time
CST
Temp
°C
App
Temp
°C
Dew
Point
°C
Rel
Hum
%
Delta-T
°C
Wind Press
QNH
hPa
Press
MSL
hPa
Rain since
9am
mm
Dir  Spd
km/h
Gust
km/h
Spd
kts
Gust
kts
20/04:30pm 19.2 14.0 8.8 51 5.4 S 26 33 14 18 1017.0 1016.9 0.0
20/04:00pm 19.8 14.5 9.7 52 5.4 S 28 41 15 22 1016.7 1016.7 0.0
20/03:30pm 19.4 14.6 10.4 56 4.8 SSE 26 37 14 20 1016.6 1016.6 0.0
20/03:00pm 18.2 14.1 12.6 70 3.1 SSE 26 39 14 21 1016.5 1016.5 0.0
20/02:30pm 17.1 12.0 13.6 80 2.0 S 33 48 18 26 1016.4 1016.4 0.0
20/02:00pm 19.5 14.0 12.5 64 3.9 S 33 41 18 22 1016.1 1016.1 0.0
20/01:30pm 18.7 14.1 14.6 77 2.4 SSW 32 39 17 21 1016.1 1016.1 0.0
20/01:29pm 18.8 14.3 14.9 78 2.3 SSW 32 39 17 21 1016.1 1016.1 0.0
20/01:00pm 19.6 13.2 13.3 67 3.6 SW 39 48 21 26 1016.1 1016.1 0.0
20/12:47pm 19.5 14.9 12.3 63 4.0 WSW 28 52 15 28 1016.1 1016.1 0.0
20/12:30pm 21.4 16.6 10.3 49 6.0 WSW 26 33 14 18 1016.2 1016.2 0.0
20/12:00pm 21.1 16.6 10.0 49 6.0 W 24 33 13 18 1016.3 1016.3 0.0
20/11:30am 21.5 17.5 10.3 49 6.1 W 22 33 12 18 1016.6 1016.6 0.0
20/11:00am 21.1 16.6 10.0 49 6.0 W 24 35 13 19 1016.8 1016.8 0.0
20/10:30am 20.0 15.8 9.6 51 5.5 W 22 32 12 17 1017.0 1016.9 0.0
20/10:00am 19.5 15.4 10.0 54 5.1 WNW 22 32 12 17 1017.1 1017.0 0.0
20/09:30am 19.3 14.8 10.0 55 5.0 WNW 24 30 13 16 1016.7 1016.7 0.0
20/09:00am 18.8 14.5 9.3 54 5.0 WNW 22 28 12 15 1016.6 1016.6 0.0
20/08:30am 18.3 14.5 9.9 58 4.4 WNW 20 24 11 13 1016.5 1016.5 0.0
20/08:00am 16.0 14.0 10.1 68 3.1 NW 11 13 6 7 1016.4 1016.4 0.0
20/07:30am 14.4 12.3 9.8 74 2.4 NW 11 13 6 7 1016.1 1016.1 0.0
20/07:00am 12.4 10.5 9.2 81 1.6 WSW 9 11 5 6 1015.9 1015.9 0.0
20/06:30am 11.9 9.7 9.3 84 1.3 W 11 13 6 7 1015.6 1015.6 0.0
20/06:00am 11.4 8.7 9.1 86 1.1 NNW 13 15 7 8 1015.2 1015.2 0.0
20/05:30am 10.7 7.8 8.3 85 1.2 NW 13 15 7 8 1014.9 1014.9 0.0
20/05:00am 12.7 9.8 9.7 82 1.5 N 15 17 8 9 1014.5 1014.5 0.0
20/04:30am 11.2 7.8 7.5 78 1.8 N 15 15 8 8 1014.5 1014.5 0.0
20/04:00am 11.2 8.1 7.1 76 2.0 NNE 13 15 7 8 1014.6 1014.6 0.0
20/03:30am 12.2 9.1 7.3 72 2.4 NNE 13 15 7 8 1014.7 1014.7 0.0
20/03:00am 9.9 6.3 5.1 72 2.2 NNW 13 13 7 7 1015.3 1015.3 0.0
20/02:30am 12.2 10.1 6.7 69 2.6 N 7 13 4 7 1015.6 1015.6 0.0
20/02:00am 12.3 10.2 6.8 69 2.6 ENE 7 9 4 5 1015.6 1015.6 0.0
20/01:30am 11.4 8.0 6.1 70 2.5 S 13 13 7 7 1015.6 1015.6 0.0
20/01:00am 12.4 8.9 7.1 70 2.6 SW 15 17 8 9 1015.9 1015.9 0.0
20/12:30am 13.8 10.1 8.0 68 2.9 SW 17 19 9 10 1015.8 1015.8 0.0
20/12:00am 12.9 9.8 7.1 68 2.8 NW 13 17 7 9 1015.6 1015.6 0.0
 
Date/Time
CST
Temp
°C
App
Temp
°C
Dew
Point
°C
Rel
Hum
%
Delta-T
°C
Wind Press
QNH
hPa
Press
MSL
hPa
Rain since
9am
mm
Dir  Spd
km/h
Gust
km/h
Spd
kts
Gust
kts
19/11:30pm 15.0 12.8 9.4 69 2.9 NW 11 17 6 9 1015.6 1015.6 0.0
19/11:00pm 16.1 13.3 8.6 61 3.8 NW 13 17 7 9 1015.5 1015.5 0.0
19/10:30pm 16.9 12.7 7.3 53 4.8 N 19 22 10 12 1015.3 1015.3 0.0
19/10:00pm 16.6 12.9 8.1 57 4.3 N 17 20 9 11 1015.3 1015.3 0.0
19/09:30pm 14.0 10.4 4.9 54 4.2 N 13 19 7 10 1015.4 1015.4 0.0
19/09:00pm 15.7 11.3 5.0 49 5.0 NNE 17 20 9 11 1015.3 1015.3 0.0
19/08:30pm 15.9 11.4 4.3 46 5.4 NNE 17 20 9 11 1015.2 1015.2 0.0
19/08:00pm 16.6 12.2 4.6 45 5.7 NE 17 20 9 11 1015.4 1015.4 0.0
19/07:30pm 16.4 12.6 3.8 43 5.8 NE 13 15 7 8 1015.5 1015.5 0.0
19/07:00pm 18.6 15.7 4.8 40 6.6 NE 9 9 5 5 1015.6 1015.6 0.0
19/06:30pm 19.5 17.1 5.2 39 7.0 NNE 7 9 4 5 1015.5 1015.5 0.0
19/06:00pm 20.7 18.5 5.1 36 7.7 N 6 6 3 3 1015.3 1015.3 0.0
19/05:30pm 21.5 19.2 5.0 34 8.1 N 6 9 3 5 1015.3 1015.3 0.0
19/05:00pm 22.1 19.3 5.1 33 8.4 NNW 9 13 5 7 1015.4 1015.4 0.0
19/04:30pm 22.3 18.8 5.3 33 8.5 NNW 13 17 7 9 1015.4 1015.4 0.0
19/04:00pm 22.9 19.7 5.3 32 8.8 NNW 11 15 6 8 1015.6 1015.6 0.0
19/03:30pm 23.2 20.5 5.6 32 8.9 N 9 20 5 11 1015.9 1015.9 0.0
19/03:00pm 22.4 18.9 5.4 33 8.5 NNW 13 19 7 10 1016.2 1016.2 0.0
19/02:30pm 22.0 18.4 5.0 33 8.4 NW 13 20 7 11 1016.4 1016.4 0.0
19/02:00pm 22.3 18.0 5.3 33 8.5 NW 17 26 9 14 1016.6 1016.6 0.0
19/01:30pm 22.3 18.5 5.7 34 8.3 NW 15 30 8 16 1017.2 1017.1 0.0
19/01:00pm 22.6 18.8 6.0 34 8.4 NW 15 28 8 15 1017.9 1017.8 0.0
19/12:30pm 21.8 16.9 5.3 34 8.2 NW 20 32 11 17 1018.5 1018.4 0.0
19/12:00pm 21.5 16.7 5.4 35 8.0 NNW 20 28 11 15 1019.0 1018.9 0.0
19/11:30am 20.7 16.4 5.1 36 7.6 NNW 17 26 9 14 1019.5 1019.4 0.0
19/11:00am 20.9 16.7 5.7 37 7.6 NW 17 20 9 11 1019.9 1019.8 0.0
19/10:30am 20.1 16.3 5.7 39 7.1 NW 15 22 8 12 1020.1 1020.0 0.0
19/10:00am 19.5 16.5 7.9 47 6.0 N 13 20 7 11 1020.2 1020.1 0.0
19/09:30am 18.9 16.6 9.1 53 5.1 N 11 17 6 9 1020.7 1020.6 0.0
19/09:00am 17.1 15.4 8.5 57 4.4 N 7 11 4 6 1020.9 1020.8 0.0
19/08:30am 15.0 12.8 6.3 56 4.2 ENE 7 9 4 5 1020.9 1020.8 0.0
19/08:00am 11.9 9.7 5.5 65 3.0 E 6 7 3 4 1020.9 1020.8 0.0
19/07:30am 8.8 5.8 4.2 73 2.0 SE 9 11 5 6 1020.7 1020.6 0.0
19/07:00am 5.7 2.4 2.4 79 1.3 SE 9 9 5 5 1020.7 1020.6 0.0
19/06:30am 5.8 2.9 2.4 79 1.4 E 7 7 4 4 1020.4 1020.3 0.0
19/06:00am 5.6 2.2 1.9 77 1.5 E 9 9 5 5 1020.4 1020.3 0.0
19/05:30am 7.2 4.0 3.3 76 1.6 NE 9 11 5 6 1020.5 1020.4 0.0
19/05:00am 7.3 3.4 3.2 75 1.7 NE 13 13 7 7 1020.4 1020.3 0.0
19/04:30am 7.5 4.0 3.6 76 1.7 E 11 13 6 7 1020.5 1020.4 0.0
19/04:00am 7.1 4.3 3.3 77 1.6 ESE 7 9 4 5 1020.7 1020.6 0.0
19/03:30am 7.6 4.2 3.8 77 1.6 E 11 11 6 6 1020.7 1020.6 0.0
19/03:00am 7.7 4.2 3.6 75 1.7 ENE 11 11 6 6 1020.8 1020.7 0.0
19/02:30am 8.3 4.6 4.7 78 1.6 E 13 13 7 7 1021.2 1021.1 0.0
19/02:00am 8.3 4.2 4.5 77 1.7 E 15 15 8 8 1021.5 1021.4 0.0
19/01:30am 8.1 4.7 4.1 76 1.7 SSE 11 13 6 7 1021.7 1021.6 0.0
19/01:00am 9.0 6.1 4.4 73 2.0 SSW 9 15 5 8 1021.9 1021.8 0.0
19/12:30am 8.7 6.1 4.1 73 2.0 S 7 9 4 5 1022.0 1021.9 0.0
19/12:00am 10.0 6.9 5.4 73 2.1 SW 11 13 6 7 1022.1 1022.0 0.0
 
Date/Time
CST
Temp
°C
App
Temp
°C
Dew
Point
°C
Rel
Hum
%
Delta-T
°C
Wind Press
QNH
hPa
Press
MSL
hPa
Rain since
9am
mm
Dir  Spd
km/h
Gust
km/h
Spd
kts
Gust
kts
18/11:30pm 9.9 6.7 5.1 72 2.2 SSW 11 15 6 8 1022.5 1022.4 0.0
18/11:00pm 11.1 7.3 5.8 70 2.5 E 15 17 8 9 1022.6 1022.5 0.0
18/10:30pm 11.7 9.1 6.0 68 2.7 ESE 9 11 5 6 1023.1 1023.0 0.0
18/10:00pm 12.4 10.3 6.7 68 2.7 E 7 9 4 5 1023.3 1023.2 0.0
18/09:30pm 12.9 10.7 6.3 64 3.1 E 7 9 4 5 1023.4 1023.3 0.0
18/09:00pm 14.5 12.9 8.2 66 3.1 NE 6 7 3 4 1023.4 1023.3 0.0
18/08:30pm 14.3 11.7 7.6 64 3.3 E 11 13 6 7 1023.3 1023.2 0.0
18/08:00pm 16.2 15.5 8.7 61 3.8 ENE 2 7 1 4 1023.5 1023.4 0.0
18/07:30pm 16.7 16.2 9.4 62 3.8 SSW 2 7 1 4 1023.7 1023.6 0.0
18/07:00pm 17.2 15.1 9.6 61 4.0 SSW 11 13 6 7 1023.8 1023.7 0.0
18/06:30pm 17.5 14.8 8.9 57 4.4 SSW 13 17 7 9 1023.7 1023.6 0.0
18/06:00pm 17.9 14.6 8.2 53 4.9 SSW 15 17 8 9 1023.6 1023.5 0.0
18/05:30pm 18.4 14.7 8.1 51 5.3 SSW 17 20 9 11 1023.6 1023.5 0.0
18/05:00pm 18.7 14.7 9.2 54 5.0 SSW 20 24 11 13 1023.5 1023.4 0.0
18/04:30pm 19.0 15.0 8.9 52 5.3 SSW 20 24 11 13 1023.4 1023.3 0.0
18/04:00pm 19.3 15.2 8.6 50 5.6 SW 20 26 11 14 1023.5 1023.4 0.0
18/03:30pm 19.9 15.8 7.9 46 6.2 WSW 19 26 10 14 1023.5 1023.4 0.0
18/03:00pm 21.1 17.8 9.7 48 6.1 WNW 17 30 9 16 1023.6 1023.5 0.0
18/02:30pm 19.8 16.8 9.1 50 5.6 W 15 20 8 11 1023.7 1023.6 0.0
18/02:00pm 19.3 16.2 8.9 51 5.4 W 15 24 8 13 1024.0 1023.9 0.0
18/01:30pm 18.5 16.9 10.3 59 4.4 WNW 9 17 5 9 1024.4 1024.3 0.0
18/01:00pm 17.3 15.1 12.0 71 2.9 WNW 15 24 8 13 1025.0 1024.9 0.0
18/12:30pm 17.1 14.2 12.2 73 2.7 W 19 22 10 12 1025.5 1025.4 0.0
18/12:00pm 17.6 13.3 11.9 69 3.1 WSW 26 30 14 16 1025.8 1025.7 0.0
18/11:30am 18.6 15.3 9.4 55 4.8 SW 17 24 9 13 1026.0 1025.9 0.0
18/11:00am 18.9 17.3 8.6 51 5.3 W 7 11 4 6 1026.3 1026.2 0.0
18/10:30am 18.8 17.4 8.7 52 5.2 WSW 6 13 3 7 1026.7 1026.6 0.0
18/10:00am 17.5 15.3 7.8 53 4.9 W 9 13 5 7 1026.9 1026.8 0.0
18/09:30am 17.1 14.5 7.7 54 4.7 W 11 13 6 7 1027.1 1027.0 0.0
18/09:00am 16.4 14.4 7.3 55 4.5 NNW 7 11 4 6 1026.9 1026.8 0.0
18/08:30am 15.3 14.7 7.3 59 3.9 CALM 0 0 0 0 1027.0 1026.9 0.0
18/08:00am 13.9 13.3 7.2 64 3.3 CALM 0 0 0 0 1026.8 1026.7 0.0
18/07:30am 12.9 11.4 6.7 66 3.0 NE 4 6 2 3 1026.5 1026.4 0.0
18/07:00am 12.6 9.7 6.4 66 2.9 ENE 11 13 6 7 1026.3 1026.2 0.0
18/06:30am 12.6 9.7 6.4 66 2.9 SE 11 13 6 7 1026.3 1026.2 0.0
18/06:00am 12.2 9.6 6.3 67 2.8 SE 9 13 5 7 1026.6 1026.5 0.0
18/05:30am 11.9 8.5 6.0 67 2.7 SSE 13 15 7 8 1026.5 1026.4 0.0
18/05:00am 11.8 8.4 5.9 67 2.8 SSE 13 15 7 8 1026.3 1026.2 0.0
18/04:30am 11.5 8.5 6.0 69 2.6 SSE 11 15 6 8 1026.3 1026.2 0.0
18/04:00am 10.4 6.9 5.6 72 2.2 SSE 13 13 7 7 1026.3 1026.2 0.0
18/03:30am 8.5 4.9 4.9 78 1.6 S 13 15 7 8 1026.3 1026.2 0.0
18/03:00am 7.9 4.2 4.3 78 1.6 ESE 13 15 7 8 1026.1 1026.0 0.0
18/02:30am 8.1 4.0 4.3 77 1.6 SE 15 17 8 9 1026.5 1026.4 0.0
18/02:00am 7.8 3.3 4.2 78 1.6 SSE 17 19 9 10 1026.9 1026.8 0.0
18/01:30am 7.3 3.0 3.5 77 1.6 SE 15 15 8 8 1027.2 1027.1 0.0
18/01:00am 7.3 3.0 3.4 76 1.7 SE 15 17 8 9 1027.3 1027.2 0.0
18/12:30am 7.5 4.0 3.6 76 1.7 SE 11 13 6 7 1027.4 1027.3 0.0
18/12:00am 7.9 3.7 3.6 74 1.8 SE 15 17 8 9 1027.4 1027.3 0.0
 
Date/Time
CST
Temp
°C
App
Temp
°C
Dew
Point
°C
Rel
Hum
%
Delta-T
°C
Wind Press
QNH
hPa
Press
MSL
hPa
Rain since
9am
mm
Dir  Spd
km/h
Gust
km/h
Spd
kts
Gust
kts
17/11:30pm 7.6 3.7 3.3 74 1.8 SE 13 13 7 7 1027.8 1027.7 0.0
17/11:00pm 9.5 6.6 4.9 73 2.1 ESE 9 13 5 7 1028.0 1027.9 0.0
17/10:30pm 9.1 5.8 4.7 74 1.9 SE 11 13 6 7 1028.0 1027.9 0.0
17/10:00pm 10.6 7.2 5.8 72 2.2 ESE 13 13 7 7 1027.9 1027.8 0.0
17/09:30pm 12.4 8.8 6.7 68 2.7 SE 15 17 8 9 1027.9 1027.8 0.0
17/09:00pm 13.3 9.1 7.5 68 2.8 S 19 20 10 11 1027.8 1027.7 0.0
17/08:30pm 14.2 10.2 8.4 68 2.9 SSW 19 20 10 11 1027.8 1027.7 0.0
17/08:00pm 14.9 11.0 8.8 67 3.1 SSW 19 20 10 11 1027.8 1027.7 0.0
17/07:30pm 15.2 11.2 8.4 64 3.4 SSW 19 20 10 11 1027.8 1027.7 0.0
17/07:00pm 15.6 11.6 8.1 61 3.8 SSW 19 20 10 11 1027.7 1027.6 0.0
17/06:30pm 16.0 11.9 8.0 59 4.0 SSW 19 22 10 12 1027.4 1027.3 0.0
17/06:00pm 17.0 12.4 8.2 56 4.5 SW 22 28 12 15 1027.3 1027.2 0.0
17/05:30pm 18.1 11.9 7.8 51 5.2 SW 30 37 16 20 1026.9 1026.8 0.0
17/05:00pm 18.9 11.8 5.4 41 6.6 SW 32 37 17 20 1026.5 1026.4 0.0

Other formats

Comma delimited format used in spreadsheet applications
http://www.bom.gov.au/fwo/IDS60801/IDS60801.99749.axf

JavaScript Object Notation format (JSON) in row-major order
http://www.bom.gov.au/fwo/IDS60801/IDS60801.99749.json

Data quality

Most of these data are generated automatically and are frequently updated. Quality checks on data are not normally performed. It is possible for incorrect values to appear. Refer to information at About Latest Weather Observations and please check the disclaimer before using these data.